sensor_id;sensor_type;location;lat;lon;timestamp;P1;durP1;ratioP1;P2;durP2;ratioP2
71196;SDS011;58918;51.652;4.864;2023-02-10T00:00:20;7.53;;;2.92;;
71196;SDS011;58918;51.652;4.864;2023-02-10T00:02:47;6.85;;;2.95;;
71196;SDS011;58918;51.652;4.864;2023-02-10T00:05:15;6.93;;;3.00;;
71196;SDS011;58918;51.652;4.864;2023-02-10T00:07:42;5.82;;;2.72;;
71196;SDS011;58918;51.652;4.864;2023-02-10T00:10:09;7.22;;;3.05;;
71196;SDS011;58918;51.652;4.864;2023-02-10T00:12:36;5.43;;;2.90;;
71196;SDS011;58918;51.652;4.864;2023-02-10T00:15:04;9.57;;;3.25;;
71196;SDS011;58918;51.652;4.864;2023-02-10T00:17:32;5.85;;;2.85;;
71196;SDS011;58918;51.652;4.864;2023-02-10T00:19:59;6.18;;;2.90;;
71196;SDS011;58918;51.652;4.864;2023-02-10T00:22:26;5.65;;;2.90;;
71196;SDS011;58918;51.652;4.864;2023-02-10T00:24:54;6.00;;;2.97;;
71196;SDS011;58918;51.652;4.864;2023-02-10T00:27:21;5.72;;;2.63;;
71196;SDS011;58918;51.652;4.864;2023-02-10T00:29:51;4.95;;;2.60;;
71196;SDS011;58918;51.652;4.864;2023-02-10T00:32:18;5.22;;;2.25;;
71196;SDS011;58918;51.652;4.864;2023-02-10T00:34:46;6.32;;;2.55;;
71196;SDS011;58918;51.652;4.864;2023-02-10T00:37:14;4.60;;;2.60;;
71196;SDS011;58918;51.652;4.864;2023-02-10T00:39:41;5.00;;;2.53;;
71196;SDS011;58918;51.652;4.864;2023-02-10T00:42:08;6.30;;;2.80;;
71196;SDS011;58918;51.652;4.864;2023-02-10T00:44:35;5.57;;;2.75;;
71196;SDS011;58918;51.652;4.864;2023-02-10T00:47:02;7.57;;;3.20;;
71196;SDS011;58918;51.652;4.864;2023-02-10T00:49:29;4.85;;;2.30;;
71196;SDS011;58918;51.652;4.864;2023-02-10T00:51:57;5.13;;;2.10;;
71196;SDS011;58918;51.652;4.864;2023-02-10T00:54:24;4.90;;;2.13;;
71196;SDS011;58918;51.652;4.864;2023-02-10T00:56:51;5.43;;;2.80;;
71196;SDS011;58918;51.652;4.864;2023-02-10T00:59:18;5.93;;;2.50;;
71196;SDS011;58918;51.652;4.864;2023-02-10T01:01:46;5.55;;;2.35;;
71196;SDS011;58918;51.652;4.864;2023-02-10T01:04:14;6.28;;;2.67;;
71196;SDS011;58918;51.652;4.864;2023-02-10T01:06:41;4.57;;;2.45;;
71196;SDS011;58918;51.652;4.864;2023-02-10T01:09:08;5.80;;;2.38;;
71196;SDS011;58918;51.652;4.864;2023-02-10T01:11:36;4.88;;;2.50;;
71196;SDS011;58918;51.652;4.864;2023-02-10T01:14:03;5.82;;;2.20;;
71196;SDS011;58918;51.652;4.864;2023-02-10T01:16:31;5.53;;;2.60;;
71196;SDS011;58918;51.652;4.864;2023-02-10T01:18:58;5.00;;;2.72;;
71196;SDS011;58918;51.652;4.864;2023-02-10T01:21:27;5.10;;;2.22;;
71196;SDS011;58918;51.652;4.864;2023-02-10T01:23:57;5.15;;;2.40;;
71196;SDS011;58918;51.652;4.864;2023-02-10T01:26:24;6.53;;;2.60;;
71196;SDS011;58918;51.652;4.864;2023-02-10T01:28:51;5.47;;;2.70;;
71196;SDS011;58918;51.652;4.864;2023-02-10T01:31:19;6.05;;;2.50;;
71196;SDS011;58918;51.652;4.864;2023-02-10T01:33:47;5.80;;;2.70;;
71196;SDS011;58918;51.652;4.864;2023-02-10T01:36:17;4.22;;;2.35;;
71196;SDS011;58918;51.652;4.864;2023-02-10T01:38:44;4.88;;;2.10;;
71196;SDS011;58918;51.652;4.864;2023-02-10T01:41:12;5.18;;;2.58;;
71196;SDS011;58918;51.652;4.864;2023-02-10T01:43:57;4.35;;;1.98;;
71196;SDS011;58918;51.652;4.864;2023-02-10T01:46:25;5.88;;;2.67;;
71196;SDS011;58918;51.652;4.864;2023-02-10T01:48:52;4.53;;;2.35;;
71196;SDS011;58918;51.652;4.864;2023-02-10T01:51:21;5.82;;;2.38;;
71196;SDS011;58918;51.652;4.864;2023-02-10T01:53:52;5.50;;;2.25;;
71196;SDS011;58918;51.652;4.864;2023-02-10T01:56:19;5.93;;;2.47;;
71196;SDS011;58918;51.652;4.864;2023-02-10T01:58:46;4.82;;;2.50;;
71196;SDS011;58918;51.652;4.864;2023-02-10T02:01:13;5.72;;;2.45;;
71196;SDS011;58918;51.652;4.864;2023-02-10T02:03:41;5.38;;;2.50;;
71196;SDS011;58918;51.652;4.864;2023-02-10T02:06:08;6.70;;;2.72;;
71196;SDS011;58918;51.652;4.864;2023-02-10T02:08:36;5.45;;;2.60;;
71196;SDS011;58918;51.652;4.864;2023-02-10T02:11:07;4.95;;;2.28;;
71196;SDS011;58918;51.652;4.864;2023-02-10T02:16:22;4.88;;;2.00;;
71196;SDS011;58918;51.652;4.864;2023-02-10T02:18:56;5.40;;;2.17;;
71196;SDS011;58918;51.652;4.864;2023-02-10T02:24:03;4.57;;;2.55;;
71196;SDS011;58918;51.652;4.864;2023-02-10T02:29:56;5.05;;;1.90;;
71196;SDS011;58918;51.652;4.864;2023-02-10T02:34:42;4.57;;;1.88;;
71196;SDS011;58918;51.652;4.864;2023-02-10T02:37:15;5.90;;;2.40;;
71196;SDS011;58918;51.652;4.864;2023-02-10T02:39:43;4.20;;;2.05;;
71196;SDS011;58918;51.652;4.864;2023-02-10T02:42:15;4.15;;;1.90;;
71196;SDS011;58918;51.652;4.864;2023-02-10T02:44:43;4.75;;;1.90;;
71196;SDS011;58918;51.652;4.864;2023-02-10T02:49:45;5.93;;;1.98;;
71196;SDS011;58918;51.652;4.864;2023-02-10T02:52:18;4.55;;;2.00;;
71196;SDS011;58918;51.652;4.864;2023-02-10T02:54:50;4.03;;;1.90;;
71196;SDS011;58918;51.652;4.864;2023-02-10T03:00:09;5.32;;;2.28;;
71196;SDS011;58918;51.652;4.864;2023-02-10T03:02:38;4.30;;;2.22;;
71196;SDS011;58918;51.652;4.864;2023-02-10T03:05:08;5.20;;;2.28;;
71196;SDS011;58918;51.652;4.864;2023-02-10T03:07:35;3.72;;;1.80;;
71196;SDS011;58918;51.652;4.864;2023-02-10T03:10:04;4.57;;;2.08;;
71196;SDS011;58918;51.652;4.864;2023-02-10T03:12:31;4.00;;;2.00;;
71196;SDS011;58918;51.652;4.864;2023-02-10T03:14:58;4.55;;;2.20;;
71196;SDS011;58918;51.652;4.864;2023-02-10T03:17:25;4.45;;;2.20;;
71196;SDS011;58918;51.652;4.864;2023-02-10T03:19:52;5.07;;;1.85;;
71196;SDS011;58918;51.652;4.864;2023-02-10T03:22:20;3.97;;;1.90;;
71196;SDS011;58918;51.652;4.864;2023-02-10T03:24:47;4.18;;;2.30;;
71196;SDS011;58918;51.652;4.864;2023-02-10T03:27:14;4.38;;;2.10;;
71196;SDS011;58918;51.652;4.864;2023-02-10T03:29:41;3.97;;;1.80;;
71196;SDS011;58918;51.652;4.864;2023-02-10T03:32:08;3.97;;;1.70;;
71196;SDS011;58918;51.652;4.864;2023-02-10T03:34:35;4.25;;;1.88;;
71196;SDS011;58918;51.652;4.864;2023-02-10T03:37:03;5.07;;;2.10;;
71196;SDS011;58918;51.652;4.864;2023-02-10T03:39:30;3.92;;;2.08;;
71196;SDS011;58918;51.652;4.864;2023-02-10T03:41:57;4.25;;;2.17;;
71196;SDS011;58918;51.652;4.864;2023-02-10T03:44:24;4.55;;;2.03;;
71196;SDS011;58918;51.652;4.864;2023-02-10T03:46:51;4.47;;;1.98;;
71196;SDS011;58918;51.652;4.864;2023-02-10T03:49:18;4.53;;;1.73;;
71196;SDS011;58918;51.652;4.864;2023-02-10T03:51:45;3.88;;;2.08;;
71196;SDS011;58918;51.652;4.864;2023-02-10T03:54:12;4.47;;;2.50;;
71196;SDS011;58918;51.652;4.864;2023-02-10T03:56:39;4.18;;;1.95;;
71196;SDS011;58918;51.652;4.864;2023-02-10T03:59:07;4.05;;;1.80;;
71196;SDS011;58918;51.652;4.864;2023-02-10T04:01:34;5.97;;;2.47;;
71196;SDS011;58918;51.652;4.864;2023-02-10T04:04:02;3.78;;;2.00;;
71196;SDS011;58918;51.652;4.864;2023-02-10T04:06:29;4.15;;;2.08;;
71196;SDS011;58918;51.652;4.864;2023-02-10T04:08:57;4.70;;;1.95;;
71196;SDS011;58918;51.652;4.864;2023-02-10T04:11:24;4.35;;;2.00;;
71196;SDS011;58918;51.652;4.864;2023-02-10T04:13:51;4.30;;;2.05;;
71196;SDS011;58918;51.652;4.864;2023-02-10T04:16:18;4.57;;;2.10;;
71196;SDS011;58918;51.652;4.864;2023-02-10T04:18:47;4.43;;;2.15;;
71196;SDS011;58918;51.652;4.864;2023-02-10T04:21:15;4.97;;;2.33;;
71196;SDS011;58918;51.652;4.864;2023-02-10T04:23:42;4.32;;;1.88;;
71196;SDS011;58918;51.652;4.864;2023-02-10T04:26:09;5.05;;;2.40;;
71196;SDS011;58918;51.652;4.864;2023-02-10T04:28:36;4.30;;;2.10;;
71196;SDS011;58918;51.652;4.864;2023-02-10T04:31:04;4.65;;;2.17;;
71196;SDS011;58918;51.652;4.864;2023-02-10T04:33:31;4.13;;;1.95;;
71196;SDS011;58918;51.652;4.864;2023-02-10T04:35:58;4.78;;;2.72;;
71196;SDS011;58918;51.652;4.864;2023-02-10T04:38:29;3.92;;;1.92;;
71196;SDS011;58918;51.652;4.864;2023-02-10T04:40:56;4.25;;;2.25;;
71196;SDS011;58918;51.652;4.864;2023-02-10T04:43:24;4.45;;;2.30;;
71196;SDS011;58918;51.652;4.864;2023-02-10T04:45:51;5.03;;;2.15;;
71196;SDS011;58918;51.652;4.864;2023-02-10T04:48:18;4.07;;;2.10;;
71196;SDS011;58918;51.652;4.864;2023-02-10T04:50:47;4.95;;;2.40;;
71196;SDS011;58918;51.652;4.864;2023-02-10T04:53:14;4.88;;;2.45;;
71196;SDS011;58918;51.652;4.864;2023-02-10T04:55:41;3.88;;;2.13;;
71196;SDS011;58918;51.652;4.864;2023-02-10T04:58:08;4.10;;;1.95;;
71196;SDS011;58918;51.652;4.864;2023-02-10T05:00:35;4.65;;;2.30;;
71196;SDS011;58918;51.652;4.864;2023-02-10T05:03:03;3.95;;;2.00;;
71196;SDS011;58918;51.652;4.864;2023-02-10T05:05:30;4.72;;;2.15;;
71196;SDS011;58918;51.652;4.864;2023-02-10T05:07:57;3.95;;;2.28;;
71196;SDS011;58918;51.652;4.864;2023-02-10T05:10:24;4.68;;;1.70;;
71196;SDS011;58918;51.652;4.864;2023-02-10T05:12:51;4.10;;;2.22;;
71196;SDS011;58918;51.652;4.864;2023-02-10T05:15:18;4.57;;;2.67;;
71196;SDS011;58918;51.652;4.864;2023-02-10T05:17:46;4.80;;;2.28;;
71196;SDS011;58918;51.652;4.864;2023-02-10T05:20:13;4.93;;;2.22;;
71196;SDS011;58918;51.652;4.864;2023-02-10T05:22:40;5.35;;;2.78;;
71196;SDS011;58918;51.652;4.864;2023-02-10T05:25:07;6.43;;;2.47;;
71196;SDS011;58918;51.652;4.864;2023-02-10T05:27:35;4.80;;;2.35;;
71196;SDS011;58918;51.652;4.864;2023-02-10T05:30:03;4.13;;;2.10;;
71196;SDS011;58918;51.652;4.864;2023-02-10T05:32:30;5.50;;;2.30;;
71196;SDS011;58918;51.652;4.864;2023-02-10T05:34:57;5.45;;;2.55;;
71196;SDS011;58918;51.652;4.864;2023-02-10T05:37:24;4.10;;;2.15;;
71196;SDS011;58918;51.652;4.864;2023-02-10T05:39:52;6.13;;;2.20;;
71196;SDS011;58918;51.652;4.864;2023-02-10T05:42:19;6.97;;;2.60;;
71196;SDS011;58918;51.652;4.864;2023-02-10T05:44:46;6.82;;;2.80;;
71196;SDS011;58918;51.652;4.864;2023-02-10T05:47:13;8.05;;;2.55;;
71196;SDS011;58918;51.652;4.864;2023-02-10T05:49:41;6.70;;;2.72;;
71196;SDS011;58918;51.652;4.864;2023-02-10T05:52:09;10.10;;;2.90;;
71196;SDS011;58918;51.652;4.864;2023-02-10T05:54:36;4.78;;;2.33;;
71196;SDS011;58918;51.652;4.864;2023-02-10T05:57:03;11.23;;;2.72;;
71196;SDS011;58918;51.652;4.864;2023-02-10T05:59:30;8.75;;;2.28;;
71196;SDS011;58918;51.652;4.864;2023-02-10T06:01:57;5.80;;;2.28;;
71196;SDS011;58918;51.652;4.864;2023-02-10T06:04:25;5.13;;;2.80;;
71196;SDS011;58918;51.652;4.864;2023-02-10T06:06:52;6.82;;;3.22;;
71196;SDS011;58918;51.652;4.864;2023-02-10T06:09:19;6.88;;;3.92;;
71196;SDS011;58918;51.652;4.864;2023-02-10T06:11:49;8.30;;;2.90;;
71196;SDS011;58918;51.652;4.864;2023-02-10T06:14:18;5.32;;;2.47;;
71196;SDS011;58918;51.652;4.864;2023-02-10T06:16:45;6.22;;;3.17;;
71196;SDS011;58918;51.652;4.864;2023-02-10T06:19:12;7.90;;;3.45;;
71196;SDS011;58918;51.652;4.864;2023-02-10T06:21:39;6.07;;;2.67;;
71196;SDS011;58918;51.652;4.864;2023-02-10T06:24:06;5.15;;;2.60;;
71196;SDS011;58918;51.652;4.864;2023-02-10T06:26:34;6.53;;;3.45;;
71196;SDS011;58918;51.652;4.864;2023-02-10T06:29:01;5.97;;;3.22;;
71196;SDS011;58918;51.652;4.864;2023-02-10T06:31:28;7.03;;;3.10;;
71196;SDS011;58918;51.652;4.864;2023-02-10T06:33:56;6.65;;;3.08;;
71196;SDS011;58918;51.652;4.864;2023-02-10T06:36:23;8.10;;;3.00;;
71196;SDS011;58918;51.652;4.864;2023-02-10T06:38:50;8.85;;;2.97;;
71196;SDS011;58918;51.652;4.864;2023-02-10T06:41:17;6.15;;;3.35;;
71196;SDS011;58918;51.652;4.864;2023-02-10T06:43:44;6.55;;;2.92;;
71196;SDS011;58918;51.652;4.864;2023-02-10T06:46:12;9.10;;;4.25;;
71196;SDS011;58918;51.652;4.864;2023-02-10T06:48:41;7.18;;;3.63;;
71196;SDS011;58918;51.652;4.864;2023-02-10T06:51:09;8.43;;;3.97;;
71196;SDS011;58918;51.652;4.864;2023-02-10T06:53:36;6.43;;;2.88;;
71196;SDS011;58918;51.652;4.864;2023-02-10T06:56:04;6.13;;;3.30;;
71196;SDS011;58918;51.652;4.864;2023-02-10T06:58:31;8.40;;;3.15;;
71196;SDS011;58918;51.652;4.864;2023-02-10T07:00:59;7.13;;;3.70;;
71196;SDS011;58918;51.652;4.864;2023-02-10T07:03:27;5.85;;;3.13;;
71196;SDS011;58918;51.652;4.864;2023-02-10T07:05:54;7.13;;;3.38;;
71196;SDS011;58918;51.652;4.864;2023-02-10T07:08:21;5.85;;;3.00;;
71196;SDS011;58918;51.652;4.864;2023-02-10T07:10:48;6.68;;;3.53;;
71196;SDS011;58918;51.652;4.864;2023-02-10T07:13:16;5.80;;;3.22;;
71196;SDS011;58918;51.652;4.864;2023-02-10T07:15:43;5.95;;;3.10;;
71196;SDS011;58918;51.652;4.864;2023-02-10T07:18:10;5.43;;;2.78;;
71196;SDS011;58918;51.652;4.864;2023-02-10T07:20:37;6.72;;;3.25;;
71196;SDS011;58918;51.652;4.864;2023-02-10T07:23:05;7.25;;;2.88;;
71196;SDS011;58918;51.652;4.864;2023-02-10T07:25:32;7.18;;;3.50;;
71196;SDS011;58918;51.652;4.864;2023-02-10T07:27:59;5.63;;;3.05;;
71196;SDS011;58918;51.652;4.864;2023-02-10T07:30:27;6.22;;;3.20;;
71196;SDS011;58918;51.652;4.864;2023-02-10T07:32:54;7.35;;;3.20;;
71196;SDS011;58918;51.652;4.864;2023-02-10T07:35:21;5.47;;;3.42;;
71196;SDS011;58918;51.652;4.864;2023-02-10T07:37:48;8.13;;;3.50;;
71196;SDS011;58918;51.652;4.864;2023-02-10T07:40:15;7.03;;;3.17;;
71196;SDS011;58918;51.652;4.864;2023-02-10T07:42:43;8.30;;;3.35;;
71196;SDS011;58918;51.652;4.864;2023-02-10T07:45:10;6.32;;;3.08;;
71196;SDS011;58918;51.652;4.864;2023-02-10T07:47:37;8.27;;;3.72;;
71196;SDS011;58918;51.652;4.864;2023-02-10T07:50:04;6.72;;;3.38;;
71196;SDS011;58918;51.652;4.864;2023-02-10T07:52:32;6.30;;;3.08;;
71196;SDS011;58918;51.652;4.864;2023-02-10T07:54:59;6.28;;;3.47;;
71196;SDS011;58918;51.652;4.864;2023-02-10T07:57:28;7.35;;;3.55;;
71196;SDS011;58918;51.652;4.864;2023-02-10T07:59:56;6.38;;;3.22;;
71196;SDS011;58918;51.652;4.864;2023-02-10T08:02:23;7.53;;;3.20;;
71196;SDS011;58918;51.652;4.864;2023-02-10T08:04:50;7.30;;;2.90;;
71196;SDS011;58918;51.652;4.864;2023-02-10T08:07:20;6.10;;;3.15;;
71196;SDS011;58918;51.652;4.864;2023-02-10T08:09:50;6.45;;;3.33;;
71196;SDS011;58918;51.652;4.864;2023-02-10T08:12:17;7.15;;;3.75;;
71196;SDS011;58918;51.652;4.864;2023-02-10T08:14:45;7.93;;;3.35;;
71196;SDS011;58918;51.652;4.864;2023-02-10T08:17:12;9.32;;;3.72;;
71196;SDS011;58918;51.652;4.864;2023-02-10T08:19:39;6.50;;;3.65;;
71196;SDS011;58918;51.652;4.864;2023-02-10T08:22:07;7.05;;;3.53;;
71196;SDS011;58918;51.652;4.864;2023-02-10T08:24:35;6.35;;;3.35;;
71196;SDS011;58918;51.652;4.864;2023-02-10T08:27:03;7.30;;;3.67;;
71196;SDS011;58918;51.652;4.864;2023-02-10T08:29:31;6.78;;;2.97;;
71196;SDS011;58918;51.652;4.864;2023-02-10T08:31:58;7.30;;;3.40;;
71196;SDS011;58918;51.652;4.864;2023-02-10T08:34:25;9.75;;;3.90;;
71196;SDS011;58918;51.652;4.864;2023-02-10T08:36:53;7.30;;;3.58;;
71196;SDS011;58918;51.652;4.864;2023-02-10T08:39:20;8.20;;;4.05;;
71196;SDS011;58918;51.652;4.864;2023-02-10T08:41:48;7.45;;;3.72;;
71196;SDS011;58918;51.652;4.864;2023-02-10T08:44:15;7.63;;;3.30;;
71196;SDS011;58918;51.652;4.864;2023-02-10T08:46:42;6.60;;;3.42;;
71196;SDS011;58918;51.652;4.864;2023-02-10T08:49:10;7.20;;;3.60;;
71196;SDS011;58918;51.652;4.864;2023-02-10T08:51:37;7.03;;;3.42;;
71196;SDS011;58918;51.652;4.864;2023-02-10T08:54:05;6.88;;;3.80;;
71196;SDS011;58918;51.652;4.864;2023-02-10T08:56:33;7.88;;;4.00;;
71196;SDS011;58918;51.652;4.864;2023-02-10T08:59:00;6.75;;;3.42;;
71196;SDS011;58918;51.652;4.864;2023-02-10T09:01:27;6.82;;;3.65;;
71196;SDS011;58918;51.652;4.864;2023-02-10T09:03:55;8.00;;;3.75;;
71196;SDS011;58918;51.652;4.864;2023-02-10T09:06:29;7.13;;;3.72;;
71196;SDS011;58918;51.652;4.864;2023-02-10T09:08:57;8.50;;;3.90;;
71196;SDS011;58918;51.652;4.864;2023-02-10T09:11:26;9.25;;;4.07;;
71196;SDS011;58918;51.652;4.864;2023-02-10T09:13:53;8.98;;;3.30;;
71196;SDS011;58918;51.652;4.864;2023-02-10T09:16:20;9.77;;;3.60;;
71196;SDS011;58918;51.652;4.864;2023-02-10T09:18:48;9.15;;;3.83;;
71196;SDS011;58918;51.652;4.864;2023-02-10T09:21:15;6.70;;;3.67;;
71196;SDS011;58918;51.652;4.864;2023-02-10T09:23:43;9.70;;;3.97;;
71196;SDS011;58918;51.652;4.864;2023-02-10T09:26:10;8.88;;;3.55;;
71196;SDS011;58918;51.652;4.864;2023-02-10T09:28:38;8.13;;;3.80;;
71196;SDS011;58918;51.652;4.864;2023-02-10T09:31:06;8.80;;;3.47;;
71196;SDS011;58918;51.652;4.864;2023-02-10T09:33:35;8.50;;;4.05;;
71196;SDS011;58918;51.652;4.864;2023-02-10T09:36:03;7.53;;;3.25;;
71196;SDS011;58918;51.652;4.864;2023-02-10T09:38:30;7.57;;;4.07;;
71196;SDS011;58918;51.652;4.864;2023-02-10T09:46:09;9.13;;;3.40;;
71196;SDS011;58918;51.652;4.864;2023-02-10T09:51:30;8.85;;;4.32;;
71196;SDS011;58918;51.652;4.864;2023-02-10T09:54:00;7.25;;;3.53;;
71196;SDS011;58918;51.652;4.864;2023-02-10T09:56:27;8.20;;;3.85;;
71196;SDS011;58918;51.652;4.864;2023-02-10T09:58:55;8.55;;;3.90;;
71196;SDS011;58918;51.652;4.864;2023-02-10T10:01:34;9.10;;;4.53;;
71196;SDS011;58918;51.652;4.864;2023-02-10T10:04:03;10.18;;;4.03;;
71196;SDS011;58918;51.652;4.864;2023-02-10T10:06:35;7.50;;;4.03;;
71196;SDS011;58918;51.652;4.864;2023-02-10T10:11:40;9.18;;;4.28;;
71196;SDS011;58918;51.652;4.864;2023-02-10T10:14:17;8.70;;;3.97;;
71196;SDS011;58918;51.652;4.864;2023-02-10T10:19:18;9.20;;;4.15;;
71196;SDS011;58918;51.652;4.864;2023-02-10T10:21:57;10.68;;;4.45;;
71196;SDS011;58918;51.652;4.864;2023-02-10T10:24:50;9.93;;;4.05;;
71196;SDS011;58918;51.652;4.864;2023-02-10T10:27:28;8.48;;;3.60;;
71196;SDS011;58918;51.652;4.864;2023-02-10T10:30:18;9.23;;;3.88;;
71196;SDS011;58918;51.652;4.864;2023-02-10T10:32:52;10.73;;;4.50;;
71196;SDS011;58918;51.652;4.864;2023-02-10T10:35:27;9.20;;;4.28;;
71196;SDS011;58918;51.652;4.864;2023-02-10T10:37:56;8.13;;;3.97;;
71196;SDS011;58918;51.652;4.864;2023-02-10T10:40:27;7.30;;;3.70;;
71196;SDS011;58918;51.652;4.864;2023-02-10T10:42:57;9.55;;;4.45;;
71196;SDS011;58918;51.652;4.864;2023-02-10T10:45:28;8.57;;;3.75;;
71196;SDS011;58918;51.652;4.864;2023-02-10T10:47:57;10.00;;;4.28;;
71196;SDS011;58918;51.652;4.864;2023-02-10T10:50:28;9.27;;;3.88;;
71196;SDS011;58918;51.652;4.864;2023-02-10T10:52:55;7.57;;;3.88;;
71196;SDS011;58918;51.652;4.864;2023-02-10T10:55:37;8.05;;;3.53;;
71196;SDS011;58918;51.652;4.864;2023-02-10T10:58:10;6.63;;;3.75;;
71196;SDS011;58918;51.652;4.864;2023-02-10T11:00:48;9.45;;;3.97;;
71196;SDS011;58918;51.652;4.864;2023-02-10T11:03:16;10.70;;;4.22;;
71196;SDS011;58918;51.652;4.864;2023-02-10T11:05:44;9.43;;;4.63;;
71196;SDS011;58918;51.652;4.864;2023-02-10T11:08:26;9.45;;;4.85;;
71196;SDS011;58918;51.652;4.864;2023-02-10T11:13:22;12.07;;;4.40;;
71196;SDS011;58918;51.652;4.864;2023-02-10T11:15:59;9.70;;;4.57;;
71196;SDS011;58918;51.652;4.864;2023-02-10T11:18:29;10.60;;;4.55;;
71196;SDS011;58918;51.652;4.864;2023-02-10T11:21:03;13.30;;;4.97;;
71196;SDS011;58918;51.652;4.864;2023-02-10T11:28:26;9.90;;;4.53;;
71196;SDS011;58918;51.652;4.864;2023-02-10T11:30:59;10.18;;;4.55;;
71196;SDS011;58918;51.652;4.864;2023-02-10T11:33:30;10.30;;;4.90;;
71196;SDS011;58918;51.652;4.864;2023-02-10T11:36:05;10.57;;;4.45;;
71196;SDS011;58918;51.652;4.864;2023-02-10T11:38:33;9.75;;;4.90;;
71196;SDS011;58918;51.652;4.864;2023-02-10T11:41:02;13.52;;;5.40;;
71196;SDS011;58918;51.652;4.864;2023-02-10T11:43:32;10.23;;;4.78;;
71196;SDS011;58918;51.652;4.864;2023-02-10T11:46:03;10.30;;;4.60;;
71196;SDS011;58918;51.652;4.864;2023-02-10T11:48:31;10.68;;;5.15;;
71196;SDS011;58918;51.652;4.864;2023-02-10T11:53:29;11.77;;;4.93;;
71196;SDS011;58918;51.652;4.864;2023-02-10T11:56:05;9.98;;;5.05;;
71196;SDS011;58918;51.652;4.864;2023-02-10T11:58:40;10.85;;;5.00;;
71196;SDS011;58918;51.652;4.864;2023-02-10T12:06:31;10.00;;;4.45;;
71196;SDS011;58918;51.652;4.864;2023-02-10T12:09:19;11.10;;;5.70;;
71196;SDS011;58918;51.652;4.864;2023-02-10T12:12:04;11.57;;;4.70;;
71196;SDS011;58918;51.652;4.864;2023-02-10T12:14:42;11.07;;;4.60;;
71196;SDS011;58918;51.652;4.864;2023-02-10T12:17:25;11.32;;;4.25;;
71196;SDS011;58918;51.652;4.864;2023-02-10T12:48:32;10.90;;;5.50;;
71196;SDS011;58918;51.652;4.864;2023-02-10T12:51:07;11.93;;;5.43;;
71196;SDS011;58918;51.652;4.864;2023-02-10T12:53:42;11.63;;;5.80;;
71196;SDS011;58918;51.652;4.864;2023-02-10T12:56:19;12.43;;;5.32;;
71196;SDS011;58918;51.652;4.864;2023-02-10T12:59:23;10.88;;;5.32;;
71196;SDS011;58918;51.652;4.864;2023-02-10T13:02:02;11.95;;;6.03;;
71196;SDS011;58918;51.652;4.864;2023-02-10T13:04:37;10.70;;;5.25;;
71196;SDS011;58918;51.652;4.864;2023-02-10T13:07:51;11.32;;;5.68;;
71196;SDS011;58918;51.652;4.864;2023-02-10T13:12:59;10.45;;;5.00;;
71196;SDS011;58918;51.652;4.864;2023-02-10T13:18:07;13.45;;;6.40;;
71196;SDS011;58918;51.652;4.864;2023-02-10T13:20:42;11.13;;;5.15;;
71196;SDS011;58918;51.652;4.864;2023-02-10T13:23:17;10.80;;;5.30;;
71196;SDS011;58918;51.652;4.864;2023-02-10T13:31:15;9.38;;;5.20;;
71196;SDS011;58918;51.652;4.864;2023-02-10T13:33:53;10.60;;;5.43;;
71196;SDS011;58918;51.652;4.864;2023-02-10T13:36:26;11.15;;;5.25;;
71196;SDS011;58918;51.652;4.864;2023-02-10T13:38:57;12.70;;;5.70;;
71196;SDS011;58918;51.652;4.864;2023-02-10T13:41:26;10.05;;;5.50;;
71196;SDS011;58918;51.652;4.864;2023-02-10T13:44:16;10.90;;;5.90;;
71196;SDS011;58918;51.652;4.864;2023-02-10T13:46:43;11.20;;;5.28;;
71196;SDS011;58918;51.652;4.864;2023-02-10T13:49:15;10.57;;;5.30;;
71196;SDS011;58918;51.652;4.864;2023-02-10T13:51:43;12.07;;;5.38;;
71196;SDS011;58918;51.652;4.864;2023-02-10T13:54:28;10.90;;;4.95;;
71196;SDS011;58918;51.652;4.864;2023-02-10T13:56:56;9.98;;;4.82;;
71196;SDS011;58918;51.652;4.864;2023-02-10T13:59:26;11.27;;;5.30;;
71196;SDS011;58918;51.652;4.864;2023-02-10T14:12:28;10.98;;;5.50;;
71196;SDS011;58918;51.652;4.864;2023-02-10T14:14:55;11.63;;;5.75;;
71196;SDS011;58918;51.652;4.864;2023-02-10T14:17:23;12.18;;;5.28;;
71196;SDS011;58918;51.652;4.864;2023-02-10T14:19:56;11.55;;;4.95;;
71196;SDS011;58918;51.652;4.864;2023-02-10T14:22:29;12.40;;;5.90;;
71196;SDS011;58918;51.652;4.864;2023-02-10T14:27:49;10.68;;;5.35;;
71196;SDS011;58918;51.652;4.864;2023-02-10T14:33:03;11.55;;;5.20;;
71196;SDS011;58918;51.652;4.864;2023-02-10T14:35:31;11.52;;;5.82;;
71196;SDS011;58918;51.652;4.864;2023-02-10T14:38:04;12.35;;;5.53;;
71196;SDS011;58918;51.652;4.864;2023-02-10T14:40:31;9.48;;;5.43;;
71196;SDS011;58918;51.652;4.864;2023-02-10T14:42:59;11.35;;;5.50;;
71196;SDS011;58918;51.652;4.864;2023-02-10T14:45:28;12.38;;;5.75;;
71196;SDS011;58918;51.652;4.864;2023-02-10T14:52:51;9.57;;;4.97;;
71196;SDS011;58918;51.652;4.864;2023-02-10T14:55:25;9.45;;;5.07;;
71196;SDS011;58918;51.652;4.864;2023-02-10T14:58:03;10.05;;;5.00;;
71196;SDS011;58918;51.652;4.864;2023-02-10T15:00:34;11.75;;;5.70;;
71196;SDS011;58918;51.652;4.864;2023-02-10T15:03:02;10.45;;;4.78;;
71196;SDS011;58918;51.652;4.864;2023-02-10T15:05:34;11.10;;;5.10;;
71196;SDS011;58918;51.652;4.864;2023-02-10T15:08:02;9.38;;;4.93;;
71196;SDS011;58918;51.652;4.864;2023-02-10T15:10:34;9.07;;;4.60;;
71196;SDS011;58918;51.652;4.864;2023-02-10T15:13:02;10.65;;;5.32;;
71196;SDS011;58918;51.652;4.864;2023-02-10T15:18:00;10.88;;;4.90;;
71196;SDS011;58918;51.652;4.864;2023-02-10T15:20:29;10.38;;;4.32;;
71196;SDS011;58918;51.652;4.864;2023-02-10T15:25:28;12.10;;;5.18;;
71196;SDS011;58918;51.652;4.864;2023-02-10T15:27:56;11.45;;;4.65;;
71196;SDS011;58918;51.652;4.864;2023-02-10T15:30:25;11.48;;;5.07;;
71196;SDS011;58918;51.652;4.864;2023-02-10T15:32:54;10.20;;;4.88;;
71196;SDS011;58918;51.652;4.864;2023-02-10T15:35:22;9.65;;;4.40;;
71196;SDS011;58918;51.652;4.864;2023-02-10T15:37:59;9.82;;;4.60;;
71196;SDS011;58918;51.652;4.864;2023-02-10T15:40:28;11.65;;;4.97;;
71196;SDS011;58918;51.652;4.864;2023-02-10T15:43:06;10.70;;;4.75;;
71196;SDS011;58918;51.652;4.864;2023-02-10T15:45:48;10.60;;;5.07;;
71196;SDS011;58918;51.652;4.864;2023-02-10T15:48:18;11.18;;;5.15;;
71196;SDS011;58918;51.652;4.864;2023-02-10T15:50:58;9.80;;;4.43;;
71196;SDS011;58918;51.652;4.864;2023-02-10T15:53:26;8.57;;;4.60;;
71196;SDS011;58918;51.652;4.864;2023-02-10T15:55:53;9.77;;;4.90;;
71196;SDS011;58918;51.652;4.864;2023-02-10T15:58:20;10.88;;;5.18;;
71196;SDS011;58918;51.652;4.864;2023-02-10T16:00:48;8.80;;;4.70;;
71196;SDS011;58918;51.652;4.864;2023-02-10T16:03:15;8.70;;;4.18;;
71196;SDS011;58918;51.652;4.864;2023-02-10T16:05:43;8.80;;;4.55;;
71196;SDS011;58918;51.652;4.864;2023-02-10T16:08:20;9.05;;;4.47;;
71196;SDS011;58918;51.652;4.864;2023-02-10T16:10:48;9.02;;;4.43;;
71196;SDS011;58918;51.652;4.864;2023-02-10T16:13:16;8.73;;;5.10;;
71196;SDS011;58918;51.652;4.864;2023-02-10T16:15:43;10.18;;;4.82;;
71196;SDS011;58918;51.652;4.864;2023-02-10T16:18:15;11.45;;;5.20;;
71196;SDS011;58918;51.652;4.864;2023-02-10T16:20:45;12.75;;;5.38;;
71196;SDS011;58918;51.652;4.864;2023-02-10T16:23:14;9.77;;;4.50;;
71196;SDS011;58918;51.652;4.864;2023-02-10T16:25:42;12.45;;;5.57;;
71196;SDS011;58918;51.652;4.864;2023-02-10T16:28:16;10.43;;;5.00;;
71196;SDS011;58918;51.652;4.864;2023-02-10T16:30:44;12.18;;;5.20;;
71196;SDS011;58918;51.652;4.864;2023-02-10T16:33:13;10.18;;;5.28;;
71196;SDS011;58918;51.652;4.864;2023-02-10T16:35:41;9.57;;;4.88;;
71196;SDS011;58918;51.652;4.864;2023-02-10T16:38:09;9.27;;;4.93;;
71196;SDS011;58918;51.652;4.864;2023-02-10T16:40:42;10.13;;;5.25;;
71196;SDS011;58918;51.652;4.864;2023-02-10T16:43:10;9.88;;;4.28;;
71196;SDS011;58918;51.652;4.864;2023-02-10T16:45:37;10.18;;;5.05;;
71196;SDS011;58918;51.652;4.864;2023-02-10T16:48:04;11.43;;;4.50;;